sensor_id;sensor_type;location;lat;lon;timestamp;P1;durP1;ratioP1;P2;durP2;ratioP2
38853;SDS011;24606;51.992;4.198;2024-01-10T00:03:13;2.70;;;2.05;;
38853;SDS011;24606;51.992;4.198;2024-01-10T00:08:15;4.45;;;2.20;;
38853;SDS011;24606;51.992;4.198;2024-01-10T00:13:19;3.70;;;2.00;;
38853;SDS011;24606;51.992;4.198;2024-01-10T00:18:21;3.08;;;2.28;;
38853;SDS011;24606;51.992;4.198;2024-01-10T00:23:23;8.93;;;1.97;;
38853;SDS011;24606;51.992;4.198;2024-01-10T00:28:27;3.60;;;1.33;;
38853;SDS011;24606;51.992;4.198;2024-01-10T00:33:29;3.10;;;2.00;;
38853;SDS011;24606;51.992;4.198;2024-01-10T00:38:31;3.90;;;2.38;;
38853;SDS011;24606;51.992;4.198;2024-01-10T00:43:34;3.00;;;1.88;;
38853;SDS011;24606;51.992;4.198;2024-01-10T00:48:37;5.75;;;2.78;;
38853;SDS011;24606;51.992;4.198;2024-01-10T00:53:39;5.10;;;1.90;;
38853;SDS011;24606;51.992;4.198;2024-01-10T00:58:43;4.30;;;2.25;;
38853;SDS011;24606;51.992;4.198;2024-01-10T01:03:45;5.30;;;2.08;;
38853;SDS011;24606;51.992;4.198;2024-01-10T01:08:47;3.83;;;2.28;;
38853;SDS011;24606;51.992;4.198;2024-01-10T01:13:51;4.25;;;2.03;;
38853;SDS011;24606;51.992;4.198;2024-01-10T01:18:53;3.45;;;1.65;;
38853;SDS011;24606;51.992;4.198;2024-01-10T01:23:55;3.35;;;2.25;;
38853;SDS011;24606;51.992;4.198;2024-01-10T01:28:58;4.57;;;2.10;;
38853;SDS011;24606;51.992;4.198;2024-01-10T01:34:00;4.13;;;2.40;;
38853;SDS011;24606;51.992;4.198;2024-01-10T01:39:02;3.40;;;1.90;;
38853;SDS011;24606;51.992;4.198;2024-01-10T01:44:06;6.20;;;2.50;;
38853;SDS011;24606;51.992;4.198;2024-01-10T01:49:08;2.53;;;1.77;;
38853;SDS011;24606;51.992;4.198;2024-01-10T01:54:12;3.33;;;2.25;;
38853;SDS011;24606;51.992;4.198;2024-01-10T01:59:16;4.97;;;1.80;;
38853;SDS011;24606;51.992;4.198;2024-01-10T02:04:18;4.30;;;2.50;;
38853;SDS011;24606;51.992;4.198;2024-01-10T02:09:21;3.60;;;2.20;;
38853;SDS011;24606;51.992;4.198;2024-01-10T02:14:25;3.85;;;2.05;;
38853;SDS011;24606;51.992;4.198;2024-01-10T02:19:28;3.88;;;1.80;;
38853;SDS011;24606;51.992;4.198;2024-01-10T02:24:31;4.78;;;2.33;;
38853;SDS011;24606;51.992;4.198;2024-01-10T02:29:35;4.93;;;2.40;;
38853;SDS011;24606;51.992;4.198;2024-01-10T02:34:37;3.15;;;2.10;;
38853;SDS011;24606;51.992;4.198;2024-01-10T02:39:39;3.30;;;2.28;;
38853;SDS011;24606;51.992;4.198;2024-01-10T02:44:43;3.10;;;1.88;;
38853;SDS011;24606;51.992;4.198;2024-01-10T02:49:45;4.55;;;2.20;;
38853;SDS011;24606;51.992;4.198;2024-01-10T02:54:47;4.80;;;2.13;;
38853;SDS011;24606;51.992;4.198;2024-01-10T02:59:50;2.58;;;1.70;;
38853;SDS011;24606;51.992;4.198;2024-01-10T03:04:52;4.85;;;2.90;;
38853;SDS011;24606;51.992;4.198;2024-01-10T03:09:54;3.10;;;2.53;;
38853;SDS011;24606;51.992;4.198;2024-01-10T03:14:58;3.95;;;2.50;;
38853;SDS011;24606;51.992;4.198;2024-01-10T03:20:00;3.50;;;2.33;;
38853;SDS011;24606;51.992;4.198;2024-01-10T03:25:02;3.17;;;2.00;;
38853;SDS011;24606;51.992;4.198;2024-01-10T03:30:07;3.45;;;2.30;;
38853;SDS011;24606;51.992;4.198;2024-01-10T03:35:10;5.93;;;2.63;;
38853;SDS011;24606;51.992;4.198;2024-01-10T03:40:12;3.50;;;2.43;;
38853;SDS011;24606;51.992;4.198;2024-01-10T03:45:17;3.60;;;2.22;;
38853;SDS011;24606;51.992;4.198;2024-01-10T03:50:22;3.67;;;2.20;;
38853;SDS011;24606;51.992;4.198;2024-01-10T03:55:25;3.67;;;2.70;;
38853;SDS011;24606;51.992;4.198;2024-01-10T04:15:30;4.05;;;3.20;;
38853;SDS011;24606;51.992;4.198;2024-01-10T04:20:33;4.75;;;3.13;;
38853;SDS011;24606;51.992;4.198;2024-01-10T04:25:35;4.10;;;2.70;;
38853;SDS011;24606;51.992;4.198;2024-01-10T04:30:38;6.03;;;3.97;;
38853;SDS011;24606;51.992;4.198;2024-01-10T04:35:40;5.82;;;3.72;;
38853;SDS011;24606;51.992;4.198;2024-01-10T04:40:42;4.30;;;2.90;;
38853;SDS011;24606;51.992;4.198;2024-01-10T04:45:46;4.72;;;2.38;;
38853;SDS011;24606;51.992;4.198;2024-01-10T04:50:48;3.97;;;2.70;;
38853;SDS011;24606;51.992;4.198;2024-01-10T04:55:50;3.33;;;2.50;;
38853;SDS011;24606;51.992;4.198;2024-01-10T05:00:53;4.15;;;3.28;;
38853;SDS011;24606;51.992;4.198;2024-01-10T05:05:55;4.65;;;2.55;;
38853;SDS011;24606;51.992;4.198;2024-01-10T05:10:57;3.40;;;2.55;;
38853;SDS011;24606;51.992;4.198;2024-01-10T05:16:01;3.25;;;2.35;;
38853;SDS011;24606;51.992;4.198;2024-01-10T05:21:03;5.05;;;3.25;;
38853;SDS011;24606;51.992;4.198;2024-01-10T05:26:05;4.60;;;2.90;;
38853;SDS011;24606;51.992;4.198;2024-01-10T05:31:09;2.95;;;2.40;;
38853;SDS011;24606;51.992;4.198;2024-01-10T05:36:11;4.20;;;2.88;;
38853;SDS011;24606;51.992;4.198;2024-01-10T05:41:13;3.77;;;2.40;;
38853;SDS011;24606;51.992;4.198;2024-01-10T05:46:17;4.70;;;2.58;;
38853;SDS011;24606;51.992;4.198;2024-01-10T05:51:20;3.92;;;2.05;;
38853;SDS011;24606;51.992;4.198;2024-01-10T05:56:22;4.07;;;1.90;;
38853;SDS011;24606;51.992;4.198;2024-01-10T06:01:25;2.83;;;2.33;;
38853;SDS011;24606;51.992;4.198;2024-01-10T06:06:27;3.63;;;2.47;;
38853;SDS011;24606;51.992;4.198;2024-01-10T06:11:30;2.90;;;2.28;;
38853;SDS011;24606;51.992;4.198;2024-01-10T06:16:33;8.88;;;3.92;;
38853;SDS011;24606;51.992;4.198;2024-01-10T06:21:35;3.25;;;2.53;;
38853;SDS011;24606;51.992;4.198;2024-01-10T06:26:37;6.00;;;3.67;;
38853;SDS011;24606;51.992;4.198;2024-01-10T06:31:41;6.77;;;3.23;;
38853;SDS011;24606;51.992;4.198;2024-01-10T06:36:43;3.03;;;2.20;;
38853;SDS011;24606;51.992;4.198;2024-01-10T06:41:45;4.07;;;2.90;;
38853;SDS011;24606;51.992;4.198;2024-01-10T06:46:49;6.05;;;4.00;;
38853;SDS011;24606;51.992;4.198;2024-01-10T06:51:51;4.72;;;2.92;;
38853;SDS011;24606;51.992;4.198;2024-01-10T06:56:53;4.05;;;2.45;;
38853;SDS011;24606;51.992;4.198;2024-01-10T07:01:56;7.05;;;3.95;;
38853;SDS011;24606;51.992;4.198;2024-01-10T07:06:59;4.55;;;2.30;;
38853;SDS011;24606;51.992;4.198;2024-01-10T07:17:08;5.30;;;3.13;;
38853;SDS011;24606;51.992;4.198;2024-01-10T07:22:10;5.03;;;3.10;;
38853;SDS011;24606;51.992;4.198;2024-01-10T07:27:12;4.28;;;3.05;;
38853;SDS011;24606;51.992;4.198;2024-01-10T07:32:16;6.22;;;3.67;;
38853;SDS011;24606;51.992;4.198;2024-01-10T07:37:20;7.40;;;3.17;;
38853;SDS011;24606;51.992;4.198;2024-01-10T07:42:22;6.85;;;3.80;;
38853;SDS011;24606;51.992;4.198;2024-01-10T07:47:26;7.67;;;3.63;;
38853;SDS011;24606;51.992;4.198;2024-01-10T07:52:28;6.65;;;4.75;;
38853;SDS011;24606;51.992;4.198;2024-01-10T07:57:31;5.57;;;4.07;;
38853;SDS011;24606;51.992;4.198;2024-01-10T08:02:35;7.82;;;3.55;;
38853;SDS011;24606;51.992;4.198;2024-01-10T08:07:37;15.18;;;4.22;;
38853;SDS011;24606;51.992;4.198;2024-01-10T08:12:39;10.00;;;3.67;;
38853;SDS011;24606;51.992;4.198;2024-01-10T08:17:43;5.05;;;3.35;;
38853;SDS011;24606;51.992;4.198;2024-01-10T08:22:45;6.43;;;3.30;;
38853;SDS011;24606;51.992;4.198;2024-01-10T08:27:48;6.82;;;3.40;;
38853;SDS011;24606;51.992;4.198;2024-01-10T08:32:54;8.45;;;3.28;;
38853;SDS011;24606;51.992;4.198;2024-01-10T08:37:56;7.63;;;5.07;;
38853;SDS011;24606;51.992;4.198;2024-01-10T08:42:58;13.60;;;5.93;;
38853;SDS011;24606;51.992;4.198;2024-01-10T08:48:03;6.07;;;3.53;;
38853;SDS011;24606;51.992;4.198;2024-01-10T08:53:06;9.65;;;4.40;;
38853;SDS011;24606;51.992;4.198;2024-01-10T08:58:08;4.80;;;2.60;;
38853;SDS011;24606;51.992;4.198;2024-01-10T09:03:12;6.40;;;4.15;;
38853;SDS011;24606;51.992;4.198;2024-01-10T09:08:15;5.53;;;3.42;;
38853;SDS011;24606;51.992;4.198;2024-01-10T09:13:17;5.73;;;3.40;;
38853;SDS011;24606;51.992;4.198;2024-01-10T09:18:20;7.22;;;4.05;;
38853;SDS011;24606;51.992;4.198;2024-01-10T09:23:23;4.05;;;2.83;;
38853;SDS011;24606;51.992;4.198;2024-01-10T09:28:25;5.90;;;3.47;;
38853;SDS011;24606;51.992;4.198;2024-01-10T09:33:29;6.30;;;3.30;;
38853;SDS011;24606;51.992;4.198;2024-01-10T09:38:34;5.45;;;3.33;;
38853;SDS011;24606;51.992;4.198;2024-01-10T09:43:37;7.68;;;4.63;;
38853;SDS011;24606;51.992;4.198;2024-01-10T09:48:41;3.37;;;2.07;;
38853;SDS011;24606;51.992;4.198;2024-01-10T09:53:44;5.93;;;3.50;;
38853;SDS011;24606;51.992;4.198;2024-01-10T09:58:51;4.72;;;3.25;;
38853;SDS011;24606;51.992;4.198;2024-01-10T10:03:58;6.25;;;3.75;;
38853;SDS011;24606;51.992;4.198;2024-01-10T10:09:02;5.13;;;3.75;;
38853;SDS011;24606;51.992;4.198;2024-01-10T10:14:13;6.60;;;4.20;;
38853;SDS011;24606;51.992;4.198;2024-01-10T10:19:23;5.03;;;3.07;;
38853;SDS011;24606;51.992;4.198;2024-01-10T10:24:25;12.60;;;3.90;;
38853;SDS011;24606;51.992;4.198;2024-01-10T10:29:28;5.10;;;3.43;;
38853;SDS011;24606;51.992;4.198;2024-01-10T10:34:31;8.63;;;3.83;;
38853;SDS011;24606;51.992;4.198;2024-01-10T10:39:33;9.30;;;4.80;;
38853;SDS011;24606;51.992;4.198;2024-01-10T10:44:36;9.93;;;4.65;;
38853;SDS011;24606;51.992;4.198;2024-01-10T10:49:47;7.57;;;4.75;;
38853;SDS011;24606;51.992;4.198;2024-01-10T10:54:56;6.07;;;3.17;;
38853;SDS011;24606;51.992;4.198;2024-01-10T10:59:59;9.68;;;4.65;;
38853;SDS011;24606;51.992;4.198;2024-01-10T11:05:04;8.10;;;4.03;;
38853;SDS011;24606;51.992;4.198;2024-01-10T11:10:10;7.60;;;3.97;;
38853;SDS011;24606;51.992;4.198;2024-01-10T11:15:20;8.45;;;4.05;;
38853;SDS011;24606;51.992;4.198;2024-01-10T11:20:39;10.63;;;4.57;;
38853;SDS011;24606;51.992;4.198;2024-01-10T11:25:54;9.52;;;5.38;;
38853;SDS011;24606;51.992;4.198;2024-01-10T11:30:56;9.82;;;5.70;;
38853;SDS011;24606;51.992;4.198;2024-01-10T11:36:07;11.25;;;5.35;;
38853;SDS011;24606;51.992;4.198;2024-01-10T11:41:15;11.50;;;6.30;;
38853;SDS011;24606;51.992;4.198;2024-01-10T11:46:22;13.00;;;5.50;;
38853;SDS011;24606;51.992;4.198;2024-01-10T11:51:27;11.60;;;5.85;;
38853;SDS011;24606;51.992;4.198;2024-01-10T11:56:37;13.13;;;6.78;;
38853;SDS011;24606;51.992;4.198;2024-01-10T12:01:40;12.60;;;7.47;;
38853;SDS011;24606;51.992;4.198;2024-01-10T12:06:47;12.70;;;8.18;;
38853;SDS011;24606;51.992;4.198;2024-01-10T12:11:50;18.83;;;8.07;;
38853;SDS011;24606;51.992;4.198;2024-01-10T12:16:52;16.65;;;7.43;;
38853;SDS011;24606;51.992;4.198;2024-01-10T12:21:58;12.18;;;7.38;;
38853;SDS011;24606;51.992;4.198;2024-01-10T12:27:00;13.30;;;7.32;;
38853;SDS011;24606;51.992;4.198;2024-01-10T12:37:07;17.48;;;7.57;;
38853;SDS011;24606;51.992;4.198;2024-01-10T12:42:11;16.13;;;8.07;;
38853;SDS011;24606;51.992;4.198;2024-01-10T12:47:17;14.90;;;6.97;;
38853;SDS011;24606;51.992;4.198;2024-01-10T12:52:22;17.65;;;6.57;;
38853;SDS011;24606;51.992;4.198;2024-01-10T12:57:25;15.85;;;6.45;;
38853;SDS011;24606;51.992;4.198;2024-01-10T13:02:27;17.83;;;6.97;;
38853;SDS011;24606;51.992;4.198;2024-01-10T13:07:30;13.77;;;6.87;;
38853;SDS011;24606;51.992;4.198;2024-01-10T13:12:34;11.95;;;6.38;;
38853;SDS011;24606;51.992;4.198;2024-01-10T13:17:36;12.97;;;6.47;;
38853;SDS011;24606;51.992;4.198;2024-01-10T13:22:40;9.27;;;5.13;;
38853;SDS011;24606;51.992;4.198;2024-01-10T13:27:47;12.10;;;5.75;;
38853;SDS011;24606;51.992;4.198;2024-01-10T13:32:50;17.75;;;5.80;;
38853;SDS011;24606;51.992;4.198;2024-01-10T13:37:54;11.17;;;5.60;;
38853;SDS011;24606;51.992;4.198;2024-01-10T13:42:57;9.27;;;5.45;;
38853;SDS011;24606;51.992;4.198;2024-01-10T13:48:02;8.23;;;5.25;;
38853;SDS011;24606;51.992;4.198;2024-01-10T13:53:06;11.27;;;5.35;;
38853;SDS011;24606;51.992;4.198;2024-01-10T13:58:08;10.68;;;5.07;;
38853;SDS011;24606;51.992;4.198;2024-01-10T14:03:10;9.23;;;4.60;;
38853;SDS011;24606;51.992;4.198;2024-01-10T14:08:13;9.18;;;5.40;;
38853;SDS011;24606;51.992;4.198;2024-01-10T14:13:16;8.45;;;5.20;;
38853;SDS011;24606;51.992;4.198;2024-01-10T14:18:19;12.95;;;5.28;;
38853;SDS011;24606;51.992;4.198;2024-01-10T14:23:23;8.70;;;4.97;;
38853;SDS011;24606;51.992;4.198;2024-01-10T14:28:25;8.50;;;5.07;;
38853;SDS011;24606;51.992;4.198;2024-01-10T14:33:27;10.60;;;5.70;;
38853;SDS011;24606;51.992;4.198;2024-01-10T14:38:31;9.65;;;5.18;;
38853;SDS011;24606;51.992;4.198;2024-01-10T14:43:35;9.18;;;4.28;;
38853;SDS011;24606;51.992;4.198;2024-01-10T14:48:38;9.65;;;5.13;;
38853;SDS011;24606;51.992;4.198;2024-01-10T14:53:41;9.67;;;5.60;;
38853;SDS011;24606;51.992;4.198;2024-01-10T14:58:43;13.27;;;4.93;;
38853;SDS011;24606;51.992;4.198;2024-01-10T15:03:46;7.55;;;4.55;;
38853;SDS011;24606;51.992;4.198;2024-01-10T15:08:50;8.10;;;4.90;;
38853;SDS011;24606;51.992;4.198;2024-01-10T15:13:52;17.20;;;8.27;;
38853;SDS011;24606;51.992;4.198;2024-01-10T15:18:56;7.88;;;4.13;;
38853;SDS011;24606;51.992;4.198;2024-01-10T15:23:59;8.23;;;5.65;;
38853;SDS011;24606;51.992;4.198;2024-01-10T15:29:02;8.00;;;4.40;;
38853;SDS011;24606;51.992;4.198;2024-01-10T15:34:04;9.02;;;4.15;;
38853;SDS011;24606;51.992;4.198;2024-01-10T15:39:10;10.50;;;5.10;;
38853;SDS011;24606;51.992;4.198;2024-01-10T15:44:14;11.52;;;6.63;;
38853;SDS011;24606;51.992;4.198;2024-01-10T15:49:16;6.30;;;3.42;;
38853;SDS011;24606;51.992;4.198;2024-01-10T15:54:19;7.80;;;3.93;;
38853;SDS011;24606;51.992;4.198;2024-01-10T15:59:23;9.10;;;4.55;;
38853;SDS011;24606;51.992;4.198;2024-01-10T16:04:25;7.50;;;4.38;;
38853;SDS011;24606;51.992;4.198;2024-01-10T16:09:29;6.87;;;4.30;;
38853;SDS011;24606;51.992;4.198;2024-01-10T16:14:31;6.93;;;3.45;;
38853;SDS011;24606;51.992;4.198;2024-01-10T16:24:37;6.85;;;3.63;;
38853;SDS011;24606;51.992;4.198;2024-01-10T16:29:40;5.43;;;3.45;;
38853;SDS011;24606;51.992;4.198;2024-01-10T16:34:42;7.90;;;4.50;;
38853;SDS011;24606;51.992;4.198;2024-01-10T16:39:48;6.75;;;3.45;;
38853;SDS011;24606;51.992;4.198;2024-01-10T16:44:51;8.43;;;5.53;;
38853;SDS011;24606;51.992;4.198;2024-01-10T16:49:53;12.80;;;3.87;;
38853;SDS011;24606;51.992;4.198;2024-01-10T16:54:56;10.07;;;3.90;;
38853;SDS011;24606;51.992;4.198;2024-01-10T16:59:58;6.10;;;4.28;;
38853;SDS011;24606;51.992;4.198;2024-01-10T17:05:01;5.72;;;3.22;;
38853;SDS011;24606;51.992;4.198;2024-01-10T17:15:07;7.80;;;3.78;;
38853;SDS011;24606;51.992;4.198;2024-01-10T17:25:15;7.57;;;2.83;;
38853;SDS011;24606;51.992;4.198;2024-01-10T17:30:18;9.95;;;5.18;;
38853;SDS011;24606;51.992;4.198;2024-01-10T17:35:20;7.90;;;4.15;;
38853;SDS011;24606;51.992;4.198;2024-01-10T17:40:24;8.77;;;5.47;;
38853;SDS011;24606;51.992;4.198;2024-01-10T17:45:26;9.10;;;4.45;;
38853;SDS011;24606;51.992;4.198;2024-01-10T17:50:28;7.90;;;5.17;;
38853;SDS011;24606;51.992;4.198;2024-01-10T17:55:32;6.22;;;3.65;;
38853;SDS011;24606;51.992;4.198;2024-01-10T18:00:34;7.03;;;4.18;;
38853;SDS011;24606;51.992;4.198;2024-01-10T18:05:38;12.00;;;5.18;;
38853;SDS011;24606;51.992;4.198;2024-01-10T18:10:44;8.15;;;3.22;;
38853;SDS011;24606;51.992;4.198;2024-01-10T18:15:48;13.93;;;3.80;;
38853;SDS011;24606;51.992;4.198;2024-01-10T18:20:50;11.30;;;4.80;;
38853;SDS011;24606;51.992;4.198;2024-01-10T18:25:54;8.55;;;4.95;;
38853;SDS011;24606;51.992;4.198;2024-01-10T18:30:56;10.07;;;3.30;;
38853;SDS011;24606;51.992;4.198;2024-01-10T18:35:58;7.75;;;4.35;;
38853;SDS011;24606;51.992;4.198;2024-01-10T18:41:02;11.65;;;5.22;;
38853;SDS011;24606;51.992;4.198;2024-01-10T18:46:05;15.73;;;5.72;;
38853;SDS011;24606;51.992;4.198;2024-01-10T18:51:07;8.02;;;4.38;;
38853;SDS011;24606;51.992;4.198;2024-01-10T18:56:10;14.48;;;7.65;;
38853;SDS011;24606;51.992;4.198;2024-01-10T19:01:12;17.17;;;8.57;;
38853;SDS011;24606;51.992;4.198;2024-01-10T19:06:14;12.67;;;6.80;;
38853;SDS011;24606;51.992;4.198;2024-01-10T19:11:18;11.20;;;6.22;;
38853;SDS011;24606;51.992;4.198;2024-01-10T19:16:20;18.10;;;6.70;;
38853;SDS011;24606;51.992;4.198;2024-01-10T19:21:22;15.00;;;6.70;;
38853;SDS011;24606;51.992;4.198;2024-01-10T19:26:28;11.87;;;7.40;;
38853;SDS011;24606;51.992;4.198;2024-01-10T19:31:30;13.80;;;6.53;;
38853;SDS011;24606;51.992;4.198;2024-01-10T19:36:32;12.80;;;4.83;;
38853;SDS011;24606;51.992;4.198;2024-01-10T19:41:36;14.17;;;5.00;;
38853;SDS011;24606;51.992;4.198;2024-01-10T19:46:42;9.90;;;4.85;;
38853;SDS011;24606;51.992;4.198;2024-01-10T19:51:47;8.45;;;4.90;;
38853;SDS011;24606;51.992;4.198;2024-01-10T19:56:51;10.53;;;4.43;;
38853;SDS011;24606;51.992;4.198;2024-01-10T20:01:53;12.43;;;6.03;;
38853;SDS011;24606;51.992;4.198;2024-01-10T20:06:55;12.33;;;5.80;;
38853;SDS011;24606;51.992;4.198;2024-01-10T20:12:01;8.30;;;4.75;;
38853;SDS011;24606;51.992;4.198;2024-01-10T20:17:05;10.38;;;4.55;;
38853;SDS011;24606;51.992;4.198;2024-01-10T20:22:13;8.35;;;5.07;;
38853;SDS011;24606;51.992;4.198;2024-01-10T20:27:16;14.83;;;4.50;;
38853;SDS011;24606;51.992;4.198;2024-01-10T20:32:18;9.82;;;4.75;;
38853;SDS011;24606;51.992;4.198;2024-01-10T20:37:20;9.43;;;4.10;;
38853;SDS011;24606;51.992;4.198;2024-01-10T20:42:24;8.38;;;4.43;;
38853;SDS011;24606;51.992;4.198;2024-01-10T20:47:30;6.75;;;4.53;;
38853;SDS011;24606;51.992;4.198;2024-01-10T20:52:32;7.22;;;4.20;;
38853;SDS011;24606;51.992;4.198;2024-01-10T20:57:36;10.55;;;3.33;;
38853;SDS011;24606;51.992;4.198;2024-01-10T21:02:38;8.38;;;4.90;;
38853;SDS011;24606;51.992;4.198;2024-01-10T21:07:40;8.68;;;4.85;;
38853;SDS011;24606;51.992;4.198;2024-01-10T21:12:44;6.03;;;4.30;;
38853;SDS011;24606;51.992;4.198;2024-01-10T21:17:46;9.30;;;4.80;;
38853;SDS011;24606;51.992;4.198;2024-01-10T21:22:49;7.43;;;3.88;;
38853;SDS011;24606;51.992;4.198;2024-01-10T21:27:53;9.88;;;5.95;;
38853;SDS011;24606;51.992;4.198;2024-01-10T21:32:55;7.25;;;3.90;;
38853;SDS011;24606;51.992;4.198;2024-01-10T21:37:57;12.82;;;7.40;;
38853;SDS011;24606;51.992;4.198;2024-01-10T21:43:01;10.55;;;6.35;;
38853;SDS011;24606;51.992;4.198;2024-01-10T21:48:05;12.90;;;4.30;;
38853;SDS011;24606;51.992;4.198;2024-01-10T21:53:07;10.32;;;5.85;;
38853;SDS011;24606;51.992;4.198;2024-01-10T21:58:13;9.93;;;5.07;;
38853;SDS011;24606;51.992;4.198;2024-01-10T22:03:15;13.80;;;5.93;;
38853;SDS011;24606;51.992;4.198;2024-01-10T22:08:17;9.68;;;5.28;;
38853;SDS011;24606;51.992;4.198;2024-01-10T22:13:20;10.93;;;5.90;;
38853;SDS011;24606;51.992;4.198;2024-01-10T22:18:22;14.25;;;7.18;;
38853;SDS011;24606;51.992;4.198;2024-01-10T22:23:24;17.33;;;6.82;;
38853;SDS011;24606;51.992;4.198;2024-01-10T22:28:28;13.37;;;6.47;;
38853;SDS011;24606;51.992;4.198;2024-01-10T22:33:30;12.93;;;6.93;;
38853;SDS011;24606;51.992;4.198;2024-01-10T22:38:32;10.53;;;4.77;;
38853;SDS011;24606;51.992;4.198;2024-01-10T22:43:36;11.17;;;5.53;;
38853;SDS011;24606;51.992;4.198;2024-01-10T22:48:38;13.13;;;5.35;;
38853;SDS011;24606;51.992;4.198;2024-01-10T22:53:43;12.57;;;5.97;;
38853;SDS011;24606;51.992;4.198;2024-01-10T22:58:47;13.52;;;6.32;;
38853;SDS011;24606;51.992;4.198;2024-01-10T23:03:49;10.63;;;5.63;;
38853;SDS011;24606;51.992;4.198;2024-01-10T23:08:52;9.55;;;5.50;;
38853;SDS011;24606;51.992;4.198;2024-01-10T23:13:55;11.60;;;5.43;;
38853;SDS011;24606;51.992;4.198;2024-01-10T23:18:57;12.35;;;5.72;;
38853;SDS011;24606;51.992;4.198;2024-01-10T23:23:59;8.23;;;4.10;;
38853;SDS011;24606;51.992;4.198;2024-01-10T23:29:04;9.05;;;4.75;;
38853;SDS011;24606;51.992;4.198;2024-01-10T23:34:06;10.70;;;5.32;;
38853;SDS011;24606;51.992;4.198;2024-01-10T23:39:08;9.83;;;5.73;;
38853;SDS011;24606;51.992;4.198;2024-01-10T23:44:12;11.10;;;4.87;;
38853;SDS011;24606;51.992;4.198;2024-01-10T23:49:15;10.23;;;5.60;;
38853;SDS011;24606;51.992;4.198;2024-01-10T23:54:17;14.57;;;5.90;;
38853;SDS011;24606;51.992;4.198;2024-01-10T23:59:21;11.23;;;5.47;;
